Hauptseite
METAR-TAF:

METAR-TAF

Flughäfen :

Frankfurt am Main, Deutschland

Flughafen Frankfurt am Main

Breite: 50-03N, Länge: 008-36E, Höhe: 111 m

Beobachtung

Neuester Wetterbericht von vor 28 Minuten, um 05:20 UTC
Wind 10 kt aus Nord
Temperatur -3°C
Luftfeuchtigkeit 68%
Luftdruck 1037 hPa
Sichtweite 10 km oder mehr
Durchbrochene Bewölkung in der Höhe von 2800 ft

METAR: EDDF 180520Z 01010KT 9999 BKN028 M03/M08 Q1037 R88/0///95 NOSIG

Zeit: 06:48 (05:48 UTC)

Prognose

Neuester Wetterbericht von vor 48 Minuten, um 05:00 UTC
Gültige Prognose vom 18 um 06 UTC bis 19 um 12 UTC
Wind 9 kt aus Nordost
Sichtweite 10 km oder mehr
Durchbrochene Bewölkung in der Höhe von 3000 ft
Übergehend zu
vom 18 um 09 UTC bis 18 um 12 UTC
Aufgelockert bewölkt in der Höhe von 3000 ft

TAF: EDDF 180500Z 1806/1912 04009KT 9999 BKN030 BECMG 1809/1812 SCT030

Wetterbeobachtungen und Prognosen von mehr als 4000 Flughäfen (METAR und TAF Bericht).

Die verfügbaren Stationen werden durch gelbe und rote Markierungen auf der Karte dargestellt.

Führen Sie die Maus auf sie, um den Namen der Station zu sehen.

Darauf klicken, um die Beobachtung von Wetterbeobachtungen und Prognosen zu sehen.

Um die Karte zu ändern : klicken Sie auf den grünen Tasten mit einem schwarzen Kreuz Zum Vergrößern, auf den grünen Button mit einem Gedankenstrich zu verkleinern, oder auf die grünen Pfeile für benachbarte Karten.


METAR-TAF: